sensor_id;sensor_type;location;lat;lon;timestamp;P1;durP1;ratioP1;P2;durP2;ratioP2
76107;SDS011;64834;52.516;10.528;2024-02-28T00:01:23;13.00;;;7.88;;
76107;SDS011;64834;52.516;10.528;2024-02-28T00:03:48;12.95;;;7.13;;
76107;SDS011;64834;52.516;10.528;2024-02-28T00:06:15;12.02;;;7.05;;
76107;SDS011;64834;52.516;10.528;2024-02-28T00:08:41;12.82;;;7.47;;
76107;SDS011;64834;52.516;10.528;2024-02-28T00:11:06;12.15;;;7.13;;
76107;SDS011;64834;52.516;10.528;2024-02-28T00:13:32;12.20;;;6.85;;
76107;SDS011;64834;52.516;10.528;2024-02-28T00:15:57;14.68;;;7.95;;
76107;SDS011;64834;52.516;10.528;2024-02-28T00:18:22;12.38;;;6.30;;
76107;SDS011;64834;52.516;10.528;2024-02-28T00:20:48;12.55;;;8.02;;
76107;SDS011;64834;52.516;10.528;2024-02-28T00:23:14;13.40;;;7.72;;
76107;SDS011;64834;52.516;10.528;2024-02-28T00:25:39;13.35;;;7.72;;
76107;SDS011;64834;52.516;10.528;2024-02-28T00:28:04;14.93;;;8.20;;
76107;SDS011;64834;52.516;10.528;2024-02-28T00:30:30;13.20;;;7.97;;
76107;SDS011;64834;52.516;10.528;2024-02-28T00:32:55;13.82;;;7.15;;
76107;SDS011;64834;52.516;10.528;2024-02-28T00:35:20;13.02;;;7.78;;
76107;SDS011;64834;52.516;10.528;2024-02-28T00:37:46;12.27;;;7.47;;
76107;SDS011;64834;52.516;10.528;2024-02-28T00:40:11;12.32;;;7.78;;
76107;SDS011;64834;52.516;10.528;2024-02-28T00:42:37;12.75;;;7.45;;
76107;SDS011;64834;52.516;10.528;2024-02-28T00:45:03;13.88;;;7.63;;
76107;SDS011;64834;52.516;10.528;2024-02-28T00:47:28;13.48;;;7.78;;
76107;SDS011;64834;52.516;10.528;2024-02-28T00:49:53;13.32;;;7.80;;
76107;SDS011;64834;52.516;10.528;2024-02-28T00:52:19;12.13;;;7.43;;
76107;SDS011;64834;52.516;10.528;2024-02-28T00:54:44;12.32;;;7.10;;
76107;SDS011;64834;52.516;10.528;2024-02-28T00:57:09;13.75;;;7.40;;
76107;SDS011;64834;52.516;10.528;2024-02-28T00:59:35;14.48;;;7.93;;
76107;SDS011;64834;52.516;10.528;2024-02-28T01:02:00;13.15;;;7.10;;
76107;SDS011;64834;52.516;10.528;2024-02-28T01:04:25;12.25;;;6.45;;
76107;SDS011;64834;52.516;10.528;2024-02-28T01:06:51;12.05;;;6.53;;
76107;SDS011;64834;52.516;10.528;2024-02-28T01:09:16;13.70;;;8.05;;
76107;SDS011;64834;52.516;10.528;2024-02-28T01:11:42;15.48;;;7.97;;
76107;SDS011;64834;52.516;10.528;2024-02-28T01:14:07;14.10;;;7.28;;
76107;SDS011;64834;52.516;10.528;2024-02-28T01:16:32;13.45;;;7.13;;
76107;SDS011;64834;52.516;10.528;2024-02-28T01:18:58;12.35;;;6.70;;
76107;SDS011;64834;52.516;10.528;2024-02-28T01:21:23;15.07;;;8.18;;
76107;SDS011;64834;52.516;10.528;2024-02-28T01:23:48;14.27;;;7.60;;
76107;SDS011;64834;52.516;10.528;2024-02-28T01:26:14;11.55;;;6.95;;
76107;SDS011;64834;52.516;10.528;2024-02-28T01:28:39;13.15;;;7.43;;
76107;SDS011;64834;52.516;10.528;2024-02-28T01:31:04;14.65;;;8.13;;
76107;SDS011;64834;52.516;10.528;2024-02-28T01:33:30;15.18;;;8.32;;
76107;SDS011;64834;52.516;10.528;2024-02-28T01:35:56;14.07;;;7.20;;
76107;SDS011;64834;52.516;10.528;2024-02-28T01:38:21;12.75;;;7.32;;
76107;SDS011;64834;52.516;10.528;2024-02-28T01:40:47;19.15;;;8.57;;
76107;SDS011;64834;52.516;10.528;2024-02-28T01:43:12;13.27;;;7.18;;
76107;SDS011;64834;52.516;10.528;2024-02-28T01:45:38;13.82;;;7.88;;
76107;SDS011;64834;52.516;10.528;2024-02-28T01:48:04;11.63;;;7.20;;
76107;SDS011;64834;52.516;10.528;2024-02-28T01:50:32;12.07;;;7.40;;
76107;SDS011;64834;52.516;10.528;2024-02-28T01:52:58;13.30;;;7.78;;
76107;SDS011;64834;52.516;10.528;2024-02-28T01:55:23;14.30;;;7.72;;
76107;SDS011;64834;52.516;10.528;2024-02-28T01:57:49;12.68;;;6.78;;
76107;SDS011;64834;52.516;10.528;2024-02-28T02:00:14;14.55;;;6.90;;
76107;SDS011;64834;52.516;10.528;2024-02-28T02:02:40;11.88;;;6.68;;
76107;SDS011;64834;52.516;10.528;2024-02-28T02:05:06;13.52;;;7.15;;
76107;SDS011;64834;52.516;10.528;2024-02-28T02:07:33;12.88;;;6.85;;
76107;SDS011;64834;52.516;10.528;2024-02-28T02:10:00;13.98;;;7.40;;
76107;SDS011;64834;52.516;10.528;2024-02-28T02:12:25;12.27;;;6.75;;
76107;SDS011;64834;52.516;10.528;2024-02-28T02:14:50;12.52;;;6.80;;
76107;SDS011;64834;52.516;10.528;2024-02-28T02:17:16;11.50;;;7.00;;
76107;SDS011;64834;52.516;10.528;2024-02-28T02:19:41;14.35;;;7.30;;
76107;SDS011;64834;52.516;10.528;2024-02-28T02:22:08;15.88;;;7.03;;
76107;SDS011;64834;52.516;10.528;2024-02-28T02:24:33;13.88;;;6.95;;
76107;SDS011;64834;52.516;10.528;2024-02-28T02:26:59;12.80;;;6.57;;
76107;SDS011;64834;52.516;10.528;2024-02-28T02:29:24;13.75;;;7.38;;
76107;SDS011;64834;52.516;10.528;2024-02-28T02:31:50;13.25;;;7.10;;
76107;SDS011;64834;52.516;10.528;2024-02-28T02:34:15;12.80;;;6.97;;
76107;SDS011;64834;52.516;10.528;2024-02-28T02:36:40;13.15;;;7.63;;
76107;SDS011;64834;52.516;10.528;2024-02-28T02:39:06;12.10;;;6.75;;
76107;SDS011;64834;52.516;10.528;2024-02-28T02:41:33;11.52;;;6.63;;
76107;SDS011;64834;52.516;10.528;2024-02-28T02:43:58;12.07;;;6.85;;
76107;SDS011;64834;52.516;10.528;2024-02-28T02:46:24;13.73;;;7.00;;
76107;SDS011;64834;52.516;10.528;2024-02-28T02:48:49;12.77;;;6.82;;
76107;SDS011;64834;52.516;10.528;2024-02-28T02:51:15;12.70;;;6.40;;
76107;SDS011;64834;52.516;10.528;2024-02-28T02:53:41;12.50;;;6.90;;
76107;SDS011;64834;52.516;10.528;2024-02-28T02:56:07;12.68;;;6.60;;
76107;SDS011;64834;52.516;10.528;2024-02-28T02:58:32;12.63;;;6.78;;
76107;SDS011;64834;52.516;10.528;2024-02-28T03:00:58;13.23;;;6.68;;
76107;SDS011;64834;52.516;10.528;2024-02-28T03:03:23;12.43;;;7.70;;
76107;SDS011;64834;52.516;10.528;2024-02-28T03:05:48;12.75;;;6.32;;
76107;SDS011;64834;52.516;10.528;2024-02-28T03:08:14;12.18;;;6.78;;
76107;SDS011;64834;52.516;10.528;2024-02-28T03:10:40;12.77;;;7.13;;
76107;SDS011;64834;52.516;10.528;2024-02-28T03:13:05;12.52;;;7.18;;
76107;SDS011;64834;52.516;10.528;2024-02-28T03:15:32;12.82;;;6.15;;
76107;SDS011;64834;52.516;10.528;2024-02-28T03:17:57;14.98;;;7.07;;
76107;SDS011;64834;52.516;10.528;2024-02-28T03:20:23;11.38;;;6.60;;
76107;SDS011;64834;52.516;10.528;2024-02-28T03:22:48;12.60;;;6.65;;
76107;SDS011;64834;52.516;10.528;2024-02-28T03:25:14;12.80;;;6.43;;
76107;SDS011;64834;52.516;10.528;2024-02-28T03:27:39;11.63;;;6.32;;
76107;SDS011;64834;52.516;10.528;2024-02-28T03:30:05;12.38;;;6.72;;
76107;SDS011;64834;52.516;10.528;2024-02-28T03:32:30;11.10;;;6.60;;
76107;SDS011;64834;52.516;10.528;2024-02-28T03:34:56;11.82;;;5.90;;
76107;SDS011;64834;52.516;10.528;2024-02-28T03:37:21;11.23;;;6.93;;
76107;SDS011;64834;52.516;10.528;2024-02-28T03:39:46;10.57;;;6.35;;
76107;SDS011;64834;52.516;10.528;2024-02-28T03:42:12;12.77;;;7.28;;
76107;SDS011;64834;52.516;10.528;2024-02-28T03:44:37;12.32;;;6.35;;
76107;SDS011;64834;52.516;10.528;2024-02-28T03:47:02;13.98;;;6.50;;
76107;SDS011;64834;52.516;10.528;2024-02-28T03:49:28;9.25;;;6.00;;
76107;SDS011;64834;52.516;10.528;2024-02-28T03:51:53;12.73;;;6.88;;
76107;SDS011;64834;52.516;10.528;2024-02-28T03:54:19;10.68;;;6.32;;
76107;SDS011;64834;52.516;10.528;2024-02-28T03:56:44;11.23;;;6.25;;
76107;SDS011;64834;52.516;10.528;2024-02-28T03:59:09;11.27;;;5.85;;
76107;SDS011;64834;52.516;10.528;2024-02-28T04:01:35;12.52;;;6.07;;
76107;SDS011;64834;52.516;10.528;2024-02-28T04:04:00;10.50;;;5.57;;
76107;SDS011;64834;52.516;10.528;2024-02-28T04:06:25;10.90;;;5.85;;
76107;SDS011;64834;52.516;10.528;2024-02-28T04:08:50;13.63;;;6.75;;
76107;SDS011;64834;52.516;10.528;2024-02-28T04:11:16;11.70;;;6.22;;
76107;SDS011;64834;52.516;10.528;2024-02-28T04:13:41;12.20;;;6.30;;
76107;SDS011;64834;52.516;10.528;2024-02-28T04:16:07;11.50;;;6.18;;
76107;SDS011;64834;52.516;10.528;2024-02-28T04:18:33;11.10;;;6.10;;
76107;SDS011;64834;52.516;10.528;2024-02-28T04:20:58;14.23;;;6.72;;
76107;SDS011;64834;52.516;10.528;2024-02-28T04:23:24;12.02;;;5.97;;
76107;SDS011;64834;52.516;10.528;2024-02-28T04:25:49;12.68;;;6.72;;
76107;SDS011;64834;52.516;10.528;2024-02-28T04:28:15;12.95;;;7.18;;
76107;SDS011;64834;52.516;10.528;2024-02-28T04:30:40;15.35;;;8.05;;
76107;SDS011;64834;52.516;10.528;2024-02-28T04:33:05;11.38;;;6.13;;
76107;SDS011;64834;52.516;10.528;2024-02-28T04:35:31;14.05;;;7.25;;
76107;SDS011;64834;52.516;10.528;2024-02-28T04:37:56;13.13;;;7.53;;
76107;SDS011;64834;52.516;10.528;2024-02-28T04:40:21;12.60;;;6.93;;
76107;SDS011;64834;52.516;10.528;2024-02-28T04:42:47;12.98;;;6.50;;
76107;SDS011;64834;52.516;10.528;2024-02-28T04:45:12;12.38;;;6.60;;
76107;SDS011;64834;52.516;10.528;2024-02-28T04:47:37;13.45;;;6.72;;
76107;SDS011;64834;52.516;10.528;2024-02-28T04:50:03;14.77;;;8.10;;
76107;SDS011;64834;52.516;10.528;2024-02-28T04:52:32;13.43;;;7.20;;
76107;SDS011;64834;52.516;10.528;2024-02-28T04:54:58;14.77;;;7.10;;
76107;SDS011;64834;52.516;10.528;2024-02-28T04:57:23;13.73;;;7.20;;
76107;SDS011;64834;52.516;10.528;2024-02-28T04:59:48;14.23;;;8.10;;
76107;SDS011;64834;52.516;10.528;2024-02-28T05:02:14;13.23;;;7.25;;
76107;SDS011;64834;52.516;10.528;2024-02-28T05:04:40;15.50;;;7.80;;
76107;SDS011;64834;52.516;10.528;2024-02-28T05:07:05;15.93;;;8.65;;
76107;SDS011;64834;52.516;10.528;2024-02-28T05:09:32;15.23;;;7.45;;
76107;SDS011;64834;52.516;10.528;2024-02-28T05:11:58;14.27;;;7.07;;
76107;SDS011;64834;52.516;10.528;2024-02-28T05:14:23;16.42;;;8.38;;
76107;SDS011;64834;52.516;10.528;2024-02-28T05:16:49;14.60;;;7.53;;
76107;SDS011;64834;52.516;10.528;2024-02-28T05:19:14;15.02;;;7.65;;
76107;SDS011;64834;52.516;10.528;2024-02-28T05:24:08;15.10;;;8.30;;
76107;SDS011;64834;52.516;10.528;2024-02-28T05:26:36;13.30;;;7.88;;
76107;SDS011;64834;52.516;10.528;2024-02-28T05:29:03;15.48;;;7.82;;
76107;SDS011;64834;52.516;10.528;2024-02-28T05:31:29;13.13;;;7.25;;
76107;SDS011;64834;52.516;10.528;2024-02-28T05:33:56;16.23;;;8.18;;
76107;SDS011;64834;52.516;10.528;2024-02-28T05:36:23;15.95;;;7.75;;
76107;SDS011;64834;52.516;10.528;2024-02-28T05:38:49;17.13;;;8.25;;
76107;SDS011;64834;52.516;10.528;2024-02-28T05:41:16;15.23;;;6.88;;
76107;SDS011;64834;52.516;10.528;2024-02-28T05:43:41;16.77;;;7.75;;
76107;SDS011;64834;52.516;10.528;2024-02-28T05:46:06;17.55;;;8.93;;
76107;SDS011;64834;52.516;10.528;2024-02-28T05:48:32;18.50;;;8.90;;
76107;SDS011;64834;52.516;10.528;2024-02-28T05:50:57;16.40;;;8.68;;
76107;SDS011;64834;52.516;10.528;2024-02-28T05:53:22;15.77;;;8.93;;
76107;SDS011;64834;52.516;10.528;2024-02-28T05:55:51;15.57;;;7.57;;
76107;SDS011;64834;52.516;10.528;2024-02-28T05:58:18;16.13;;;8.95;;
76107;SDS011;64834;52.516;10.528;2024-02-28T06:00:44;17.42;;;8.50;;
76107;SDS011;64834;52.516;10.528;2024-02-28T06:03:09;16.65;;;8.43;;
76107;SDS011;64834;52.516;10.528;2024-02-28T06:05:34;16.00;;;8.02;;
76107;SDS011;64834;52.516;10.528;2024-02-28T06:07:59;16.52;;;8.38;;
76107;SDS011;64834;52.516;10.528;2024-02-28T06:10:25;17.48;;;8.70;;
76107;SDS011;64834;52.516;10.528;2024-02-28T06:12:50;14.50;;;7.25;;
76107;SDS011;64834;52.516;10.528;2024-02-28T06:15:16;14.57;;;8.18;;
76107;SDS011;64834;52.516;10.528;2024-02-28T06:17:42;14.45;;;7.95;;
76107;SDS011;64834;52.516;10.528;2024-02-28T06:20:07;16.15;;;8.15;;
76107;SDS011;64834;52.516;10.528;2024-02-28T06:22:32;16.33;;;8.75;;
76107;SDS011;64834;52.516;10.528;2024-02-28T06:24:58;18.10;;;8.10;;
76107;SDS011;64834;52.516;10.528;2024-02-28T06:27:23;14.27;;;8.15;;
76107;SDS011;64834;52.516;10.528;2024-02-28T06:29:48;15.55;;;8.13;;
76107;SDS011;64834;52.516;10.528;2024-02-28T06:32:14;16.17;;;8.35;;
76107;SDS011;64834;52.516;10.528;2024-02-28T06:34:39;17.40;;;9.00;;
76107;SDS011;64834;52.516;10.528;2024-02-28T06:37:05;20.55;;;9.27;;
76107;SDS011;64834;52.516;10.528;2024-02-28T06:39:30;20.17;;;9.65;;
76107;SDS011;64834;52.516;10.528;2024-02-28T06:41:55;21.45;;;10.95;;
76107;SDS011;64834;52.516;10.528;2024-02-28T06:44:20;19.25;;;9.60;;
76107;SDS011;64834;52.516;10.528;2024-02-28T06:46:46;22.42;;;10.38;;
76107;SDS011;64834;52.516;10.528;2024-02-28T06:49:11;19.90;;;9.98;;
76107;SDS011;64834;52.516;10.528;2024-02-28T06:51:36;24.10;;;11.20;;
76107;SDS011;64834;52.516;10.528;2024-02-28T06:54:02;24.90;;;11.82;;
76107;SDS011;64834;52.516;10.528;2024-02-28T06:56:28;22.88;;;11.27;;
76107;SDS011;64834;52.516;10.528;2024-02-28T06:58:53;23.17;;;11.00;;
76107;SDS011;64834;52.516;10.528;2024-02-28T07:01:19;22.67;;;10.25;;
76107;SDS011;64834;52.516;10.528;2024-02-28T07:03:44;20.80;;;10.82;;
76107;SDS011;64834;52.516;10.528;2024-02-28T07:06:10;19.55;;;10.45;;
76107;SDS011;64834;52.516;10.528;2024-02-28T07:08:36;19.05;;;10.32;;
76107;SDS011;64834;52.516;10.528;2024-02-28T07:11:02;23.20;;;10.82;;
76107;SDS011;64834;52.516;10.528;2024-02-28T07:13:27;20.10;;;10.10;;
76107;SDS011;64834;52.516;10.528;2024-02-28T07:15:53;25.20;;;10.93;;
76107;SDS011;64834;52.516;10.528;2024-02-28T07:18:19;21.92;;;11.10;;
76107;SDS011;64834;52.516;10.528;2024-02-28T07:20:45;23.00;;;11.45;;
76107;SDS011;64834;52.516;10.528;2024-02-28T07:23:10;24.17;;;11.95;;
76107;SDS011;64834;52.516;10.528;2024-02-28T07:25:35;26.02;;;11.65;;
76107;SDS011;64834;52.516;10.528;2024-02-28T07:28:01;26.05;;;12.43;;
76107;SDS011;64834;52.516;10.528;2024-02-28T07:30:27;27.30;;;12.77;;
76107;SDS011;64834;52.516;10.528;2024-02-28T07:32:52;27.23;;;12.68;;
76107;SDS011;64834;52.516;10.528;2024-02-28T07:35:18;26.23;;;12.18;;
76107;SDS011;64834;52.516;10.528;2024-02-28T07:37:43;28.27;;;13.80;;
76107;SDS011;64834;52.516;10.528;2024-02-28T07:40:09;30.23;;;14.23;;
76107;SDS011;64834;52.516;10.528;2024-02-28T07:42:34;28.90;;;13.75;;
76107;SDS011;64834;52.516;10.528;2024-02-28T07:45:00;30.65;;;14.18;;
76107;SDS011;64834;52.516;10.528;2024-02-28T07:47:25;29.00;;;13.00;;
76107;SDS011;64834;52.516;10.528;2024-02-28T07:49:51;29.25;;;13.35;;
76107;SDS011;64834;52.516;10.528;2024-02-28T07:52:17;30.63;;;14.48;;
76107;SDS011;64834;52.516;10.528;2024-02-28T07:54:42;31.27;;;13.68;;
76107;SDS011;64834;52.516;10.528;2024-02-28T07:57:10;32.90;;;14.60;;
76107;SDS011;64834;52.516;10.528;2024-02-28T07:59:40;29.85;;;14.02;;
76107;SDS011;64834;52.516;10.528;2024-02-28T08:02:05;26.85;;;12.27;;
76107;SDS011;64834;52.516;10.528;2024-02-28T08:04:31;29.48;;;13.95;;
76107;SDS011;64834;52.516;10.528;2024-02-28T08:06:56;29.88;;;13.15;;
76107;SDS011;64834;52.516;10.528;2024-02-28T08:09:22;29.77;;;12.80;;
76107;SDS011;64834;52.516;10.528;2024-02-28T08:11:47;26.58;;;13.02;;
76107;SDS011;64834;52.516;10.528;2024-02-28T08:14:13;27.90;;;13.70;;
76107;SDS011;64834;52.516;10.528;2024-02-28T08:16:38;28.88;;;12.50;;
76107;SDS011;64834;52.516;10.528;2024-02-28T08:19:03;29.17;;;13.20;;
76107;SDS011;64834;52.516;10.528;2024-02-28T08:21:29;23.65;;;12.85;;
76107;SDS011;64834;52.516;10.528;2024-02-28T08:23:54;25.02;;;12.00;;
76107;SDS011;64834;52.516;10.528;2024-02-28T08:26:19;23.77;;;11.38;;
76107;SDS011;64834;52.516;10.528;2024-02-28T08:28:45;25.83;;;12.30;;
76107;SDS011;64834;52.516;10.528;2024-02-28T08:31:10;24.08;;;11.73;;
76107;SDS011;64834;52.516;10.528;2024-02-28T08:33:35;25.02;;;12.25;;
76107;SDS011;64834;52.516;10.528;2024-02-28T08:36:01;26.02;;;12.10;;
76107;SDS011;64834;52.516;10.528;2024-02-28T08:38:26;24.58;;;11.57;;
76107;SDS011;64834;52.516;10.528;2024-02-28T08:40:51;25.38;;;12.27;;
76107;SDS011;64834;52.516;10.528;2024-02-28T08:43:17;28.20;;;12.57;;
76107;SDS011;64834;52.516;10.528;2024-02-28T08:45:42;24.40;;;11.65;;
76107;SDS011;64834;52.516;10.528;2024-02-28T08:48:07;24.38;;;13.07;;
76107;SDS011;64834;52.516;10.528;2024-02-28T08:50:33;23.77;;;11.23;;
76107;SDS011;64834;52.516;10.528;2024-02-28T08:52:58;25.17;;;12.05;;
76107;SDS011;64834;52.516;10.528;2024-02-28T08:55:23;26.98;;;12.25;;
76107;SDS011;64834;52.516;10.528;2024-02-28T08:57:49;23.08;;;12.05;;
76107;SDS011;64834;52.516;10.528;2024-02-28T09:00:14;23.88;;;11.93;;
76107;SDS011;64834;52.516;10.528;2024-02-28T09:02:40;22.63;;;10.50;;
76107;SDS011;64834;52.516;10.528;2024-02-28T09:05:06;24.08;;;11.35;;
76107;SDS011;64834;52.516;10.528;2024-02-28T09:07:31;26.17;;;11.75;;
76107;SDS011;64834;52.516;10.528;2024-02-28T09:09:57;23.45;;;11.10;;
76107;SDS011;64834;52.516;10.528;2024-02-28T09:12:22;24.02;;;12.50;;
76107;SDS011;64834;52.516;10.528;2024-02-28T09:14:47;25.33;;;12.40;;
76107;SDS011;64834;52.516;10.528;2024-02-28T09:17:19;24.77;;;12.32;;
76107;SDS011;64834;52.516;10.528;2024-02-28T09:19:44;23.88;;;11.77;;
76107;SDS011;64834;52.516;10.528;2024-02-28T09:22:10;25.27;;;11.95;;
76107;SDS011;64834;52.516;10.528;2024-02-28T09:24:36;25.73;;;11.85;;
76107;SDS011;64834;52.516;10.528;2024-02-28T09:27:02;29.27;;;13.30;;
76107;SDS011;64834;52.516;10.528;2024-02-28T09:29:28;26.13;;;11.90;;
76107;SDS011;64834;52.516;10.528;2024-02-28T09:31:53;23.23;;;11.52;;
76107;SDS011;64834;52.516;10.528;2024-02-28T09:34:18;25.92;;;12.10;;
76107;SDS011;64834;52.516;10.528;2024-02-28T09:36:45;26.05;;;12.40;;
76107;SDS011;64834;52.516;10.528;2024-02-28T09:39:13;22.85;;;11.98;;
76107;SDS011;64834;52.516;10.528;2024-02-28T09:41:40;28.50;;;12.18;;
76107;SDS011;64834;52.516;10.528;2024-02-28T09:44:06;26.17;;;11.80;;
76107;SDS011;64834;52.516;10.528;2024-02-28T09:46:31;23.35;;;11.15;;
76107;SDS011;64834;52.516;10.528;2024-02-28T09:48:59;29.15;;;12.18;;
76107;SDS011;64834;52.516;10.528;2024-02-28T09:51:30;23.20;;;11.45;;
76107;SDS011;64834;52.516;10.528;2024-02-28T09:53:58;26.05;;;12.45;;
76107;SDS011;64834;52.516;10.528;2024-02-28T09:56:25;24.13;;;11.88;;
76107;SDS011;64834;52.516;10.528;2024-02-28T09:58:52;25.60;;;12.07;;
76107;SDS011;64834;52.516;10.528;2024-02-28T10:01:19;22.88;;;11.00;;
76107;SDS011;64834;52.516;10.528;2024-02-28T10:03:47;23.65;;;11.40;;
76107;SDS011;64834;52.516;10.528;2024-02-28T10:06:15;23.77;;;11.02;;
76107;SDS011;64834;52.516;10.528;2024-02-28T10:08:40;23.60;;;11.10;;
76107;SDS011;64834;52.516;10.528;2024-02-28T10:11:06;30.17;;;11.65;;
76107;SDS011;64834;52.516;10.528;2024-02-28T10:13:31;21.20;;;9.00;;
76107;SDS011;64834;52.516;10.528;2024-02-28T10:15:56;24.35;;;10.50;;
76107;SDS011;64834;52.516;10.528;2024-02-28T10:18:22;27.08;;;11.45;;
76107;SDS011;64834;52.516;10.528;2024-02-28T10:20:47;31.45;;;13.68;;
76107;SDS011;64834;52.516;10.528;2024-02-28T10:23:12;27.40;;;12.38;;
76107;SDS011;64834;52.516;10.528;2024-02-28T10:25:45;31.45;;;13.25;;
76107;SDS011;64834;52.516;10.528;2024-02-28T10:28:11;27.42;;;12.68;;
76107;SDS011;64834;52.516;10.528;2024-02-28T10:30:42;25.20;;;12.77;;
76107;SDS011;64834;52.516;10.528;2024-02-28T10:33:11;26.33;;;12.10;;
76107;SDS011;64834;52.516;10.528;2024-02-28T10:35:43;24.98;;;12.30;;
76107;SDS011;64834;52.516;10.528;2024-02-28T10:38:11;27.25;;;11.98;;
76107;SDS011;64834;52.516;10.528;2024-02-28T10:40:38;30.05;;;13.15;;
76107;SDS011;64834;52.516;10.528;2024-02-28T10:43:04;18.05;;;8.85;;
76107;SDS011;64834;52.516;10.528;2024-02-28T10:45:32;25.70;;;11.95;;
76107;SDS011;64834;52.516;10.528;2024-02-28T10:47:58;24.30;;;9.73;;
76107;SDS011;64834;52.516;10.528;2024-02-28T10:50:23;20.27;;;8.95;;
76107;SDS011;64834;52.516;10.528;2024-02-28T10:52:49;27.77;;;12.02;;
76107;SDS011;64834;52.516;10.528;2024-02-28T10:55:22;28.35;;;13.65;;
76107;SDS011;64834;52.516;10.528;2024-02-28T10:57:53;30.17;;;13.43;;
76107;SDS011;64834;52.516;10.528;2024-02-28T11:00:25;24.02;;;11.80;;
76107;SDS011;64834;52.516;10.528;2024-02-28T11:02:50;26.08;;;12.70;;
76107;SDS011;64834;52.516;10.528;2024-02-28T11:05:15;28.33;;;13.15;;
76107;SDS011;64834;52.516;10.528;2024-02-28T11:07:50;32.90;;;15.48;;
76107;SDS011;64834;52.516;10.528;2024-02-28T11:10:17;28.10;;;12.07;;
76107;SDS011;64834;52.516;10.528;2024-02-28T11:12:43;22.70;;;10.30;;
76107;SDS011;64834;52.516;10.528;2024-02-28T11:15:15;27.95;;;12.57;;
76107;SDS011;64834;52.516;10.528;2024-02-28T11:17:42;23.95;;;12.35;;
76107;SDS011;64834;52.516;10.528;2024-02-28T11:20:11;28.65;;;12.82;;
76107;SDS011;64834;52.516;10.528;2024-02-28T11:22:37;30.13;;;12.82;;
76107;SDS011;64834;52.516;10.528;2024-02-28T11:25:04;29.00;;;12.77;;
76107;SDS011;64834;52.516;10.528;2024-02-28T11:27:30;25.27;;;11.02;;
76107;SDS011;64834;52.516;10.528;2024-02-28T11:29:56;33.50;;;14.20;;
76107;SDS011;64834;52.516;10.528;2024-02-28T11:32:24;29.55;;;12.30;;
76107;SDS011;64834;52.516;10.528;2024-02-28T11:34:49;30.58;;;13.38;;
76107;SDS011;64834;52.516;10.528;2024-02-28T11:37:16;29.08;;;13.40;;
76107;SDS011;64834;52.516;10.528;2024-02-28T11:39:46;30.92;;;12.77;;
76107;SDS011;64834;52.516;10.528;2024-02-28T11:42:12;23.42;;;10.93;;
76107;SDS011;64834;52.516;10.528;2024-02-28T11:44:39;31.92;;;14.52;;
76107;SDS011;64834;52.516;10.528;2024-02-28T11:47:05;31.83;;;14.30;;
76107;SDS011;64834;52.516;10.528;2024-02-28T11:49:34;33.13;;;13.80;;
76107;SDS011;64834;52.516;10.528;2024-02-28T11:51:59;34.42;;;14.63;;
76107;SDS011;64834;52.516;10.528;2024-02-28T11:54:24;33.05;;;15.43;;
76107;SDS011;64834;52.516;10.528;2024-02-28T11:56:50;35.60;;;14.68;;
76107;SDS011;64834;52.516;10.528;2024-02-28T11:59:15;29.50;;;13.93;;
76107;SDS011;64834;52.516;10.528;2024-02-28T12:01:41;28.92;;;14.43;;
76107;SDS011;64834;52.516;10.528;2024-02-28T12:04:09;27.98;;;13.43;;
76107;SDS011;64834;52.516;10.528;2024-02-28T12:06:35;28.00;;;13.02;;
76107;SDS011;64834;52.516;10.528;2024-02-28T12:09:06;31.08;;;14.05;;
76107;SDS011;64834;52.516;10.528;2024-02-28T12:11:36;31.55;;;14.98;;
76107;SDS011;64834;52.516;10.528;2024-02-28T12:14:08;30.95;;;14.18;;
76107;SDS011;64834;52.516;10.528;2024-02-28T12:16:36;32.22;;;15.55;;
76107;SDS011;64834;52.516;10.528;2024-02-28T12:19:03;29.95;;;12.50;;
76107;SDS011;64834;52.516;10.528;2024-02-28T12:21:32;33.50;;;14.73;;
76107;SDS011;64834;52.516;10.528;2024-02-28T12:23:57;26.13;;;11.75;;
76107;SDS011;64834;52.516;10.528;2024-02-28T12:26:23;22.63;;;10.13;;
76107;SDS011;64834;52.516;10.528;2024-02-28T12:28:48;32.60;;;15.05;;
76107;SDS011;64834;52.516;10.528;2024-02-28T12:31:13;32.28;;;15.27;;
76107;SDS011;64834;52.516;10.528;2024-02-28T12:33:39;31.90;;;15.48;;
76107;SDS011;64834;52.516;10.528;2024-02-28T12:36:05;30.90;;;14.05;;
76107;SDS011;64834;52.516;10.528;2024-02-28T12:38:30;32.35;;;15.02;;
76107;SDS011;64834;52.516;10.528;2024-02-28T12:40:56;30.67;;;14.90;;
76107;SDS011;64834;52.516;10.528;2024-02-28T12:43:22;32.47;;;15.38;;
76107;SDS011;64834;52.516;10.528;2024-02-28T12:48:15;30.75;;;14.60;;
76107;SDS011;64834;52.516;10.528;2024-02-28T12:50:40;30.95;;;14.95;;
76107;SDS011;64834;52.516;10.528;2024-02-28T12:53:05;31.27;;;13.95;;
76107;SDS011;64834;52.516;10.528;2024-02-28T12:55:31;36.75;;;16.65;;
76107;SDS011;64834;52.516;10.528;2024-02-28T12:57:57;29.75;;;15.02;;
76107;SDS011;64834;52.516;10.528;2024-02-28T13:00:24;35.58;;;15.10;;
76107;SDS011;64834;52.516;10.528;2024-02-28T13:02:50;33.45;;;15.93;;
76107;SDS011;64834;52.516;10.528;2024-02-28T13:05:15;29.30;;;13.85;;
76107;SDS011;64834;52.516;10.528;2024-02-28T13:07:41;29.45;;;13.80;;
76107;SDS011;64834;52.516;10.528;2024-02-28T13:10:06;31.08;;;14.13;;
76107;SDS011;64834;52.516;10.528;2024-02-28T13:12:32;32.33;;;15.73;;
76107;SDS011;64834;52.516;10.528;2024-02-28T13:14:58;31.42;;;14.30;;
76107;SDS011;64834;52.516;10.528;2024-02-28T13:17:27;33.97;;;15.95;;
76107;SDS011;64834;52.516;10.528;2024-02-28T13:19:52;34.28;;;16.17;;
76107;SDS011;64834;52.516;10.528;2024-02-28T13:25:11;27.92;;;13.18;;
76107;SDS011;64834;52.516;10.528;2024-02-28T13:27:39;31.33;;;14.38;;
76107;SDS011;64834;52.516;10.528;2024-02-28T13:30:05;29.75;;;15.35;;
76107;SDS011;64834;52.516;10.528;2024-02-28T13:32:31;31.98;;;14.70;;
76107;SDS011;64834;52.516;10.528;2024-02-28T13:34:57;30.05;;;14.90;;
76107;SDS011;64834;52.516;10.528;2024-02-28T13:37:22;32.90;;;14.32;;
76107;SDS011;64834;52.516;10.528;2024-02-28T13:39:48;30.65;;;14.55;;
76107;SDS011;64834;52.516;10.528;2024-02-28T13:42:17;32.15;;;14.45;;
76107;SDS011;64834;52.516;10.528;2024-02-28T13:44:49;32.03;;;16.20;;
76107;SDS011;64834;52.516;10.528;2024-02-28T13:47:14;30.05;;;14.35;;
76107;SDS011;64834;52.516;10.528;2024-02-28T13:49:40;33.50;;;15.73;;
76107;SDS011;64834;52.516;10.528;2024-02-28T13:52:05;34.53;;;15.35;;
76107;SDS011;64834;52.516;10.528;2024-02-28T13:54:31;33.25;;;15.80;;
76107;SDS011;64834;52.516;10.528;2024-02-28T13:56:57;30.35;;;14.45;;
76107;SDS011;64834;52.516;10.528;2024-02-28T13:59:23;30.40;;;14.32;;
76107;SDS011;64834;52.516;10.528;2024-02-28T14:01:48;28.92;;;13.90;;
76107;SDS011;64834;52.516;10.528;2024-02-28T14:04:14;32.33;;;14.73;;
76107;SDS011;64834;52.516;10.528;2024-02-28T14:06:39;32.85;;;14.50;;
76107;SDS011;64834;52.516;10.528;2024-02-28T14:09:05;30.92;;;14.73;;
76107;SDS011;64834;52.516;10.528;2024-02-28T14:11:30;35.55;;;15.60;;
76107;SDS011;64834;52.516;10.528;2024-02-28T14:13:55;30.92;;;14.38;;
76107;SDS011;64834;52.516;10.528;2024-02-28T14:16:21;28.75;;;14.13;;